createdAt,value
2018-07-24T00:02:21.094Z,19.01
2018-07-24T00:04:50.447Z,19.01
2018-07-24T00:07:19.814Z,18.97
2018-07-24T00:09:49.422Z,18.94
2018-07-24T00:12:19.022Z,18.85
2018-07-24T00:14:48.350Z,18.67
2018-07-24T00:17:17.405Z,18.70
2018-07-24T00:19:46.795Z,18.73
2018-07-24T00:22:16.158Z,18.75
2018-07-24T00:24:45.603Z,18.71
2018-07-24T00:27:14.974Z,18.67
2018-07-24T00:29:44.382Z,18.65
2018-07-24T00:32:13.805Z,18.65
2018-07-24T00:34:43.126Z,18.54
2018-07-24T00:37:12.481Z,18.46
2018-07-24T00:39:41.846Z,18.40
2018-07-24T00:42:11.217Z,18.36
2018-07-24T00:44:40.580Z,18.28
2018-07-24T00:47:10.237Z,18.29
2018-07-24T00:49:40.440Z,18.35
2018-07-24T00:52:10.137Z,18.30
2018-07-24T00:54:39.462Z,18.21
2018-07-24T00:57:08.837Z,18.13
2018-07-24T00:59:37.987Z,18.15
2018-07-24T01:02:07.396Z,18.11
2018-07-24T01:04:36.760Z,18.04
2018-07-24T01:07:06.453Z,18.02
2018-07-24T01:09:35.516Z,17.98
2018-07-24T01:12:04.876Z,17.97
2018-07-24T01:14:34.279Z,17.97
2018-07-24T01:17:03.598Z,17.92
2018-07-24T01:19:32.940Z,17.89
2018-07-24T01:22:02.406Z,17.91
2018-07-24T01:24:31.753Z,17.79
2018-07-24T01:27:01.285Z,17.65
2018-07-24T01:29:30.654Z,17.73
2018-07-24T01:32:00.028Z,17.64
2018-07-24T01:34:29.416Z,17.67
2018-07-24T01:36:58.763Z,17.68
2018-07-24T01:39:28.117Z,17.69
2018-07-24T01:41:57.468Z,17.70
2018-07-24T01:44:26.804Z,17.67
2018-07-24T01:46:56.197Z,17.63
2018-07-24T01:49:25.588Z,17.62
2018-07-24T01:51:54.886Z,17.63
2018-07-24T01:54:24.255Z,17.51
2018-07-24T01:56:53.694Z,17.53
2018-07-24T01:59:23.013Z,17.57
2018-07-24T02:01:52.095Z,17.58
2018-07-24T02:04:21.426Z,17.52
2018-07-24T02:06:50.810Z,17.54
2018-07-24T02:09:20.169Z,17.44
2018-07-24T02:11:49.533Z,17.46
2018-07-24T02:14:18.862Z,17.38
2018-07-24T02:16:48.307Z,17.30
2018-07-24T02:19:17.670Z,17.30
2018-07-24T02:21:47.039Z,17.37
2018-07-24T02:24:16.120Z,17.19
2018-07-24T02:26:45.834Z,17.15
2018-07-24T02:29:15.161Z,17.13
2018-07-24T02:31:44.516Z,17.20
2018-07-24T02:34:14.009Z,17.22
2018-07-24T02:36:43.338Z,17.23
2018-07-24T02:39:14.399Z,17.18
2018-07-24T02:41:43.486Z,17.13
2018-07-24T02:44:12.870Z,17.20
2018-07-24T02:46:42.202Z,17.07
2018-07-24T02:49:11.591Z,17.04
2018-07-24T02:51:40.949Z,17.09
2018-07-24T02:54:10.350Z,17.08
2018-07-24T02:56:39.695Z,16.99
2018-07-24T02:59:09.022Z,17.05
2018-07-24T03:01:39.375Z,16.98
2018-07-24T03:04:09.695Z,16.96
2018-07-24T03:06:39.061Z,17.00
2018-07-24T03:09:10.466Z,16.92
2018-07-24T03:11:39.972Z,16.91
2018-07-24T03:14:09.478Z,16.90
2018-07-24T03:16:38.850Z,16.86
2018-07-24T03:19:08.338Z,16.84
2018-07-24T03:21:37.794Z,16.85
2018-07-24T03:24:07.192Z,16.84
2018-07-24T03:26:36.565Z,16.86
2018-07-24T03:29:05.627Z,16.92
2018-07-24T03:31:34.927Z,16.86
2018-07-24T03:34:04.559Z,16.85
2018-07-24T03:36:33.874Z,16.92
2018-07-24T03:39:03.289Z,16.92
2018-07-24T03:41:32.626Z,16.87
2018-07-24T03:44:01.974Z,16.88
2018-07-24T03:46:31.282Z,16.87
2018-07-24T03:49:00.414Z,16.84
2018-07-24T03:51:29.788Z,16.86
2018-07-24T03:53:59.182Z,16.86
2018-07-24T03:56:28.297Z,16.86
2018-07-24T03:58:57.891Z,16.92
2018-07-24T04:01:27.085Z,17.02
2018-07-24T04:03:56.695Z,17.06
2018-07-24T04:06:26.197Z,17.08
2018-07-24T04:08:55.546Z,17.10
2018-07-24T04:11:24.933Z,17.16
2018-07-24T04:13:54.357Z,17.26
2018-07-24T04:16:23.754Z,17.33
2018-07-24T04:18:53.117Z,17.38
2018-07-24T04:21:22.499Z,17.46
2018-07-24T04:23:51.813Z,17.57
2018-07-24T04:26:21.301Z,17.64
2018-07-24T04:28:50.714Z,17.75
2018-07-24T04:31:20.518Z,17.81
2018-07-24T04:33:49.862Z,17.84
2018-07-24T04:36:19.193Z,17.85
2018-07-24T04:38:48.605Z,17.94
2018-07-24T04:41:18.014Z,18.01
2018-07-24T04:43:47.660Z,18.10
2018-07-24T04:46:17.015Z,18.20
2018-07-24T04:48:46.418Z,18.31
2018-07-24T04:51:15.854Z,18.40
2018-07-24T04:53:45.355Z,18.51
2018-07-24T04:56:14.721Z,18.61
2018-07-24T04:58:44.169Z,18.66
2018-07-24T05:01:13.682Z,18.77
2018-07-24T05:03:43.035Z,18.90
2018-07-24T05:06:12.378Z,19.01
2018-07-24T05:08:41.717Z,19.14
2018-07-24T05:11:11.029Z,19.26
2018-07-24T05:13:40.618Z,19.44
2018-07-24T05:16:09.957Z,19.56
2018-07-24T05:18:39.492Z,19.67
2018-07-24T05:21:09.045Z,19.84
2018-07-24T05:23:38.491Z,19.94
2018-07-24T05:26:07.746Z,20.11
2018-07-24T05:28:37.113Z,20.22
2018-07-24T05:31:06.458Z,20.28
2018-07-24T05:33:35.936Z,20.43
2018-07-24T05:36:05.474Z,20.52
2018-07-24T05:38:34.853Z,20.59
2018-07-24T05:41:04.249Z,20.70
2018-07-24T05:43:33.674Z,20.81
2018-07-24T05:46:02.999Z,20.90
2018-07-24T05:48:33.462Z,21.01
2018-07-24T05:51:02.769Z,21.17
2018-07-24T05:53:32.184Z,21.24
2018-07-24T05:56:01.661Z,21.28
2018-07-24T05:58:31.187Z,21.42
2018-07-24T06:01:00.598Z,21.50
2018-07-24T06:03:30.125Z,21.56
2018-07-24T06:05:59.605Z,21.67
2018-07-24T06:08:29.849Z,21.79
2018-07-24T06:10:59.194Z,21.83
2018-07-24T06:13:28.626Z,22.01
2018-07-24T06:15:58.313Z,22.06
2018-07-24T06:18:27.757Z,22.14
2018-07-24T06:20:57.272Z,22.18
2018-07-24T06:23:26.673Z,22.29
2018-07-24T06:25:56.048Z,22.43
2018-07-24T06:28:25.501Z,22.56
2018-07-24T06:30:55.017Z,22.60
2018-07-24T06:33:24.385Z,22.74
2018-07-24T06:35:53.908Z,22.81
2018-07-24T06:38:23.641Z,22.93
2018-07-24T06:40:53.097Z,23.09
2018-07-24T06:43:22.497Z,23.21
2018-07-24T06:45:51.846Z,23.27
2018-07-24T06:48:21.241Z,23.39
2018-07-24T06:50:50.579Z,23.43
2018-07-24T06:53:20.075Z,23.51
2018-07-24T06:55:49.441Z,23.57
2018-07-24T06:58:18.853Z,23.62
2018-07-24T07:00:48.286Z,23.72
2018-07-24T07:03:17.745Z,23.80
2018-07-24T07:05:47.142Z,23.85
2018-07-24T07:08:16.550Z,24.07
2018-07-24T07:10:46.033Z,24.05
2018-07-24T07:13:15.496Z,24.24
2018-07-24T07:15:45.002Z,24.34
2018-07-24T07:18:14.336Z,24.34
2018-07-24T07:20:43.814Z,24.39
2018-07-24T07:23:13.319Z,24.43
2018-07-24T07:25:42.398Z,24.52
2018-07-24T07:28:11.752Z,24.51
2018-07-24T07:30:41.182Z,24.56
2018-07-24T07:33:10.521Z,24.63
2018-07-24T07:35:39.970Z,24.71
2018-07-24T07:38:09.492Z,24.69
2018-07-24T07:40:38.892Z,24.71
2018-07-24T07:43:08.321Z,24.70
2018-07-24T07:45:37.717Z,24.70
2018-07-24T07:48:07.248Z,24.81
2018-07-24T07:50:36.654Z,24.92
2018-07-24T07:53:06.030Z,25.03
2018-07-24T07:55:35.478Z,25.07
2018-07-24T07:58:04.854Z,25.24
2018-07-24T08:00:34.209Z,25.30
2018-07-24T08:03:03.669Z,25.28
2018-07-24T08:05:33.127Z,25.26
2018-07-24T08:08:02.570Z,25.37
2018-07-24T08:10:31.957Z,25.43
2018-07-24T08:13:01.383Z,25.49
2018-07-24T08:15:30.804Z,25.61
2018-07-24T08:18:00.221Z,25.60
2018-07-24T08:20:29.697Z,25.65
2018-07-24T08:22:59.097Z,25.53
2018-07-24T08:25:28.610Z,25.58
2018-07-24T08:27:58.006Z,25.69
2018-07-24T08:30:27.499Z,25.82
2018-07-24T08:32:57.049Z,25.79
2018-07-24T08:35:26.476Z,26.05
2018-07-24T08:37:55.906Z,26.01
2018-07-24T08:40:25.932Z,26.03
2018-07-24T08:42:55.326Z,25.98
2018-07-24T08:45:24.633Z,26.00
2018-07-24T08:47:54.062Z,26.08
2018-07-24T08:50:23.466Z,26.04
2018-07-24T08:52:52.971Z,26.14
2018-07-24T08:55:22.974Z,26.31
2018-07-24T08:57:51.989Z,26.21
2018-07-24T09:00:21.306Z,26.27
2018-07-24T09:02:50.370Z,26.31
2018-07-24T09:05:19.893Z,26.32
2018-07-24T09:07:49.242Z,26.46
2018-07-24T09:10:19.428Z,26.47
2018-07-24T09:12:48.916Z,26.56
2018-07-24T09:15:19.344Z,26.58
2018-07-24T09:17:48.733Z,26.69
2018-07-24T09:20:18.109Z,26.67
2018-07-24T09:22:47.457Z,26.75
2018-07-24T09:25:16.917Z,26.77
2018-07-24T09:27:46.889Z,26.82
2018-07-24T09:30:17.301Z,26.74
2018-07-24T09:32:47.946Z,26.90
2018-07-24T09:35:17.321Z,27.11
2018-07-24T09:37:47.119Z,27.19
2018-07-24T09:40:16.969Z,27.34
2018-07-24T09:42:47.337Z,27.23
2018-07-24T09:45:17.705Z,27.27
2018-07-24T09:47:47.086Z,27.34
2018-07-24T09:50:16.658Z,27.46
2018-07-24T09:52:47.332Z,27.46
2018-07-24T09:55:16.752Z,27.48
2018-07-24T09:57:46.607Z,27.43
2018-07-24T10:00:16.050Z,27.41
2018-07-24T10:02:45.494Z,27.58
2018-07-24T10:05:14.833Z,27.52
2018-07-24T10:07:44.170Z,27.63
2018-07-24T10:10:13.606Z,27.92
2018-07-24T10:12:43.047Z,28.03
2018-07-24T10:15:13.339Z,27.82
2018-07-24T10:17:42.786Z,27.94
2018-07-24T10:20:12.595Z,27.97
2018-07-24T10:22:42.051Z,27.94
2018-07-24T10:25:11.722Z,27.93
2018-07-24T10:27:41.401Z,27.97
2018-07-24T10:30:10.656Z,28.10
2018-07-24T10:32:39.974Z,28.24
2018-07-24T10:35:09.398Z,28.37
2018-07-24T10:37:38.879Z,28.40
2018-07-24T10:40:08.305Z,28.46
2018-07-24T10:42:37.658Z,28.36
2018-07-24T10:45:07.098Z,28.32
2018-07-24T10:47:36.557Z,28.59
2018-07-24T10:50:06.541Z,28.60
2018-07-24T10:52:35.935Z,28.86
2018-07-24T10:55:05.970Z,28.99
2018-07-24T10:57:35.825Z,29.07
2018-07-24T11:00:05.864Z,29.06
2018-07-24T11:02:35.506Z,29.10
2018-07-24T11:05:04.903Z,28.84
2018-07-24T11:07:34.385Z,29.04
2018-07-24T11:10:03.819Z,28.94
2018-07-24T11:12:33.429Z,29.19
2018-07-24T11:15:02.933Z,29.37
2018-07-24T11:17:32.417Z,29.39
2018-07-24T11:20:01.845Z,29.67
2018-07-24T11:22:31.265Z,29.65
2018-07-24T11:25:00.829Z,29.67
2018-07-24T11:27:30.198Z,29.56
2018-07-24T11:29:59.645Z,29.47
2018-07-24T11:32:29.520Z,29.51
2018-07-24T11:34:58.958Z,29.65
2018-07-24T11:37:29.317Z,30.00
2018-07-24T11:39:58.987Z,30.33
2018-07-24T11:42:28.417Z,30.52
2018-07-24T11:44:57.815Z,30.74
2018-07-24T11:47:27.168Z,30.62
2018-07-24T11:49:56.625Z,30.79
2018-07-24T11:52:26.035Z,30.86
2018-07-24T11:54:55.418Z,30.75
2018-07-24T11:57:24.845Z,30.64
2018-07-24T11:59:54.213Z,30.94
2018-07-24T12:02:23.652Z,31.15
2018-07-24T12:04:53.042Z,31.29
2018-07-24T12:07:22.443Z,31.47
2018-07-24T12:09:51.930Z,31.49
2018-07-24T12:12:21.378Z,31.76
2018-07-24T12:14:50.971Z,31.58
2018-07-24T12:17:20.306Z,31.72
2018-07-24T12:19:49.690Z,31.57
2018-07-24T12:22:19.080Z,31.81
2018-07-24T12:24:48.455Z,31.92
2018-07-24T12:27:17.890Z,31.82
2018-07-24T12:29:47.217Z,32.20
2018-07-24T12:32:16.581Z,32.72
2018-07-24T12:34:46.017Z,34.20
2018-07-24T12:37:15.400Z,35.66
2018-07-24T12:39:44.728Z,36.24
2018-07-24T12:42:14.196Z,37.30
2018-07-24T12:44:43.699Z,38.48
2018-07-24T12:47:13.374Z,39.55
2018-07-24T12:49:42.807Z,41.32
2018-07-24T12:52:12.210Z,41.84
2018-07-24T12:54:41.598Z,42.13
2018-07-24T12:57:11.034Z,43.20
2018-07-24T12:59:40.450Z,42.13
2018-07-24T13:02:09.909Z,41.53
2018-07-24T13:04:39.337Z,40.39
2018-07-24T13:07:08.891Z,40.46
2018-07-24T13:09:38.710Z,42.73
2018-07-24T13:12:08.258Z,42.64
2018-07-24T13:14:37.653Z,42.08
2018-07-24T13:17:07.953Z,41.53
2018-07-24T13:19:37.417Z,42.17
2018-07-24T13:22:06.917Z,41.01
2018-07-24T13:24:36.460Z,41.11
2018-07-24T13:27:05.758Z,42.26
2018-07-24T13:29:34.966Z,42.16
2018-07-24T13:32:04.429Z,41.06
2018-07-24T13:34:33.706Z,40.46
2018-07-24T13:37:03.061Z,41.50
2018-07-24T13:39:32.877Z,41.69
2018-07-24T13:42:02.372Z,41.64
2018-07-24T13:44:31.734Z,43.27
2018-07-24T13:47:01.198Z,44.68
2018-07-24T13:49:30.577Z,45.55
2018-07-24T13:51:59.979Z,44.39
2018-07-24T13:54:29.327Z,45.64
2018-07-24T13:56:58.673Z,46.10
2018-07-24T13:59:28.198Z,44.31
2018-07-24T14:01:57.931Z,42.96
2018-07-24T14:04:27.192Z,40.98
2018-07-24T14:06:56.598Z,38.90
2018-07-24T14:09:26.330Z,38.34
2018-07-24T14:11:55.726Z,37.35
2018-07-24T14:14:25.138Z,38.17
2018-07-24T14:16:54.608Z,37.05
2018-07-24T14:19:23.906Z,35.78
2018-07-24T14:21:53.251Z,35.13
2018-07-24T14:24:22.633Z,34.39
2018-07-24T14:26:52.005Z,35.78
2018-07-24T14:29:21.454Z,37.85
2018-07-24T14:31:50.817Z,38.18
2018-07-24T14:34:20.167Z,39.63
2018-07-24T14:36:49.579Z,38.09
2018-07-24T14:39:19.025Z,37.09
2018-07-24T14:41:48.415Z,35.44
2018-07-24T14:44:17.838Z,35.19
2018-07-24T14:46:47.398Z,35.86
2018-07-24T14:49:16.738Z,35.54
2018-07-24T14:51:46.126Z,36.44
2018-07-24T14:54:15.810Z,37.23
2018-07-24T14:56:45.190Z,38.04
2018-07-24T14:59:14.610Z,40.10
2018-07-24T15:01:44.029Z,39.74
2018-07-24T15:04:13.406Z,38.42
2018-07-24T15:06:42.769Z,38.28
2018-07-24T15:09:13.086Z,38.48
2018-07-24T15:11:42.514Z,40.41
2018-07-24T15:14:11.754Z,41.19
2018-07-24T15:16:41.126Z,41.50
2018-07-24T15:19:10.502Z,41.07
2018-07-24T15:21:40.215Z,41.70
2018-07-24T15:24:09.629Z,41.30
2018-07-24T15:26:39.115Z,41.04
2018-07-24T15:29:08.929Z,40.87
2018-07-24T15:31:38.304Z,41.90
2018-07-24T15:34:07.983Z,41.84
2018-07-24T15:36:37.303Z,42.01
2018-07-24T15:39:11.079Z,41.60
2018-07-24T15:41:41.088Z,40.70
2018-07-24T15:44:10.455Z,39.22
2018-07-24T15:46:39.723Z,37.40
2018-07-24T15:49:09.259Z,37.65
2018-07-24T15:51:38.634Z,38.53
2018-07-24T15:54:08.022Z,39.55
2018-07-24T15:56:37.572Z,39.70
2018-07-24T15:59:07.035Z,39.48
2018-07-24T16:01:36.442Z,39.29
2018-07-24T16:04:05.871Z,37.95
2018-07-24T16:06:35.199Z,38.46
2018-07-24T16:09:06.646Z,39.68
2018-07-24T16:11:35.808Z,40.02
2018-07-24T16:14:05.320Z,39.35
2018-07-24T16:16:34.693Z,40.10
2018-07-24T16:19:04.367Z,39.30
2018-07-24T16:21:33.732Z,40.46
2018-07-24T16:24:03.118Z,40.95
2018-07-24T16:26:32.529Z,41.85
2018-07-24T16:29:01.610Z,39.91
2018-07-24T16:31:30.998Z,40.12
2018-07-24T16:34:00.473Z,40.23
2018-07-24T16:36:29.869Z,39.33
2018-07-24T16:38:59.277Z,39.36
2018-07-24T16:41:28.638Z,39.50
2018-07-24T16:43:58.160Z,38.97
2018-07-24T16:46:27.441Z,38.94
2018-07-24T16:48:56.833Z,38.87
2018-07-24T16:51:26.417Z,38.61
2018-07-24T16:53:55.862Z,38.07
2018-07-24T16:56:25.422Z,38.93
2018-07-24T16:58:54.945Z,38.94
2018-07-24T17:01:24.439Z,39.29
2018-07-24T17:03:54.247Z,39.77
2018-07-24T17:06:23.594Z,38.27
2018-07-24T17:08:53.135Z,38.49
2018-07-24T17:11:22.678Z,39.10
2018-07-24T17:13:52.146Z,39.14
2018-07-24T17:16:21.560Z,39.62
2018-07-24T17:18:51.124Z,39.41
2018-07-24T17:21:20.442Z,37.16
2018-07-24T17:23:49.841Z,37.74
2018-07-24T17:26:19.436Z,37.22
2018-07-24T17:28:48.745Z,36.14
2018-07-24T17:31:18.110Z,35.58
2018-07-24T17:33:48.249Z,35.82
2018-07-24T17:36:17.685Z,36.01
2018-07-24T17:38:47.445Z,35.29
2018-07-24T17:41:17.035Z,34.98
2018-07-24T17:43:46.522Z,35.03
2018-07-24T17:46:16.526Z,34.30
2018-07-24T17:48:46.181Z,34.00
2018-07-24T17:51:15.627Z,33.75
2018-07-24T17:53:44.991Z,33.25
2018-07-24T17:56:14.476Z,32.59
2018-07-24T17:58:44.047Z,32.21
2018-07-24T18:01:13.502Z,31.87
2018-07-24T18:03:42.863Z,31.67
2018-07-24T18:06:12.326Z,31.58
2018-07-24T18:08:42.263Z,31.07
2018-07-24T18:11:11.607Z,30.81
2018-07-24T18:13:41.257Z,30.49
2018-07-24T18:16:10.722Z,30.26
2018-07-24T18:18:40.106Z,30.15
2018-07-24T18:21:09.878Z,29.94
2018-07-24T18:23:40.021Z,29.67
2018-07-24T18:26:09.450Z,29.52
2018-07-24T18:28:38.580Z,29.30
2018-07-24T18:31:08.047Z,29.10
2018-07-24T18:33:37.505Z,29.16
2018-07-24T18:36:06.998Z,28.87
2018-07-24T18:38:36.426Z,28.76
2018-07-24T18:41:05.890Z,28.77
2018-07-24T18:43:35.237Z,28.71
2018-07-24T18:46:04.629Z,28.67
2018-07-24T18:48:34.008Z,28.42
2018-07-24T18:51:03.427Z,28.29
2018-07-24T18:53:32.994Z,28.14
2018-07-24T18:56:02.758Z,28.05
2018-07-24T18:58:32.251Z,27.92
2018-07-24T19:01:02.186Z,27.90
2018-07-24T19:03:31.589Z,27.80
2018-07-24T19:06:01.629Z,27.69
2018-07-24T19:08:31.035Z,27.73
2018-07-24T19:11:00.449Z,27.74
2018-07-24T19:13:29.793Z,27.59
2018-07-24T19:15:59.542Z,27.61
2018-07-24T19:18:29.233Z,27.56
2018-07-24T19:20:58.839Z,27.47
2018-07-24T19:23:28.205Z,27.30
2018-07-24T19:25:57.767Z,27.25
2018-07-24T19:28:27.073Z,27.17
2018-07-24T19:30:56.446Z,27.11
2018-07-24T19:33:25.855Z,26.96
2018-07-24T19:35:55.254Z,26.91
2018-07-24T19:38:24.640Z,26.97
2018-07-24T19:40:54.042Z,26.87
2018-07-24T19:43:23.459Z,26.69
2018-07-24T19:45:52.816Z,26.75
2018-07-24T19:48:22.311Z,26.70
2018-07-24T19:50:51.786Z,26.48
2018-07-24T19:53:21.137Z,26.49
2018-07-24T19:55:50.597Z,26.47
2018-07-24T19:58:19.989Z,26.52
2018-07-24T20:00:49.648Z,26.38
2018-07-24T20:03:19.008Z,26.35
2018-07-24T20:05:48.494Z,26.20
2018-07-24T20:08:18.105Z,26.22
2018-07-24T20:10:47.458Z,26.15
2018-07-24T20:13:17.066Z,26.07
2018-07-24T20:15:46.413Z,25.86
2018-07-24T20:18:15.806Z,25.83
2018-07-24T20:20:45.239Z,25.98
2018-07-24T20:23:14.631Z,25.73
2018-07-24T20:25:44.082Z,25.58
2018-07-24T20:28:13.413Z,25.63
2018-07-24T20:30:42.959Z,25.70
2018-07-24T20:33:12.374Z,25.63
2018-07-24T20:35:41.924Z,25.56
2018-07-24T20:38:11.249Z,25.48
2018-07-24T20:40:40.617Z,25.54
2018-07-24T20:43:10.089Z,25.41
2018-07-24T20:45:39.483Z,25.42
2018-07-24T20:48:08.988Z,25.46
2018-07-24T20:50:38.461Z,25.31
2018-07-24T20:53:07.918Z,25.28
2018-07-24T20:55:37.429Z,25.33
2018-07-24T20:58:06.891Z,25.09
2018-07-24T21:00:39.581Z,25.17
2018-07-24T21:03:08.749Z,24.98
2018-07-24T21:05:38.308Z,24.96
2018-07-24T21:08:08.131Z,24.96
2018-07-24T21:10:37.870Z,24.91
2018-07-24T21:13:08.780Z,24.87
2018-07-24T21:15:39.369Z,24.81
2018-07-24T21:18:08.817Z,24.80
2018-07-24T21:20:38.366Z,24.72
2018-07-24T21:23:12.143Z,24.74
2018-07-24T21:25:41.597Z,24.67
2018-07-24T21:28:11.567Z,24.55
2018-07-24T21:30:40.924Z,24.60
2018-07-24T21:33:10.354Z,24.57
2018-07-24T21:35:39.759Z,24.50
2018-07-24T21:38:09.253Z,24.42
2018-07-24T21:40:38.898Z,24.32
2018-07-24T21:43:08.343Z,24.21
2018-07-24T21:45:37.892Z,24.23
2018-07-24T21:48:07.297Z,24.22
2018-07-24T21:50:36.812Z,24.22
2018-07-24T21:53:06.089Z,24.14
2018-07-24T21:55:35.454Z,24.10
2018-07-24T21:58:05.190Z,24.12
2018-07-24T22:00:37.440Z,24.04
2018-07-24T22:03:09.064Z,24.07
2018-07-24T22:05:38.454Z,24.07
2018-07-24T22:08:07.894Z,23.98
2018-07-24T22:10:37.613Z,24.08
2018-07-24T22:13:07.303Z,23.92
2018-07-24T22:15:37.005Z,24.04
2018-07-24T22:18:06.536Z,23.87
2018-07-24T22:20:36.577Z,23.78
2018-07-24T22:23:06.642Z,23.81
2018-07-24T22:25:35.942Z,23.95
2018-07-24T22:28:05.164Z,23.91
2018-07-24T22:30:35.162Z,23.87
2018-07-24T22:33:04.661Z,23.80
2018-07-24T22:35:34.120Z,23.82
2018-07-24T22:38:03.522Z,23.63
2018-07-24T22:40:32.898Z,23.52
2018-07-24T22:43:02.339Z,23.54
2018-07-24T22:45:31.713Z,23.58
2018-07-24T22:48:01.146Z,23.46
2018-07-24T22:50:30.545Z,23.39
2018-07-24T22:52:59.863Z,23.44
2018-07-24T22:55:29.256Z,23.30
2018-07-24T22:57:58.694Z,23.25
2018-07-24T23:00:28.062Z,23.18
2018-07-24T23:02:57.186Z,23.04
2018-07-24T23:05:26.633Z,22.96
2018-07-24T23:07:56.066Z,22.93
2018-07-24T23:10:30.745Z,22.85
2018-07-24T23:13:00.657Z,22.72
2018-07-24T23:15:30.223Z,22.65
2018-07-24T23:17:59.777Z,22.65
2018-07-24T23:20:29.499Z,22.64
2018-07-24T23:22:58.883Z,22.52
2018-07-24T23:25:28.338Z,22.55
2018-07-24T23:27:57.763Z,22.51
2018-07-24T23:30:27.125Z,22.51
2018-07-24T23:32:56.554Z,22.44
2018-07-24T23:35:25.938Z,22.39
2018-07-24T23:37:55.530Z,22.28
2018-07-24T23:40:25.805Z,22.21
2018-07-24T23:42:55.457Z,22.15
2018-07-24T23:45:24.651Z,22.13
2018-07-24T23:47:53.857Z,22.09
2018-07-24T23:50:23.206Z,22.05
2018-07-24T23:52:52.514Z,21.92
2018-07-24T23:55:22.134Z,21.81
2018-07-24T23:57:51.655Z,21.74
